Time,TemperatureF,DewpointF,PressureIn,WindDirection,WindDirectionDegrees,WindSpeedMPH,WindSpeedGustMPH,Humidity,HourlyPrecipIn,Conditions,Clouds,dailyrainin,SoftwareType,DateUTC
2014-01-01 00:12:00,34.7,23.0,30.39,ESE,109,0.0,1.0,62,0.00,,,0.00,weatherlink.com 1.10,2014-01-01 07:12:00,
2014-01-01 00:28:00,34.2,23.0,30.39,ESE,110,0.0,1.0,63,0.00,,,0.00,weatherlink.com 1.10,2014-01-01 07:28:00,
2014-01-01 00:43:00,34.3,23.0,30.39,ESE,110,1.0,1.0,64,0.00,,,0.00,weatherlink.com 1.10,2014-01-01 07:43:00,
2014-01-01 00:58:00,34.2,23.0,30.39,ESE,105,0.0,1.0,64,0.00,,,0.00,weatherlink.com 1.10,2014-01-01 07:58:00,
2014-01-01 01:13:00,34.6,23.0,30.39,NNW,345,1.0,1.0,64,0.00,,,0.00,weatherlink.com 1.10,2014-01-01 08:13:00,
2014-01-01 01:28:00,34.5,23.0,30.39,ESE,106,0.0,2.0,63,0.00,,,0.00,weatherlink.com 1.10,2014-01-01 08:28:00,
2014-01-01 01:43:00,33.8,23.0,30.39,SE,136,0.0,2.0,64,0.00,,,0.00,weatherlink.com 1.10,2014-01-01 08:43:00,
2014-01-01 01:58:00,33.3,23.0,30.39,South,181,0.0,2.0,65,0.00,,,0.00,weatherlink.com 1.10,2014-01-01 08:58:00,
2014-01-01 02:13:00,32.9,23.0,30.39,ESE,105,1.0,2.0,66,0.00,,,0.00,weatherlink.com 1.10,2014-01-01 09:13:00,
2014-01-01 02:28:00,32.5,22.0,30.39,ESE,105,0.0,1.0,66,0.00,,,0.00,weatherlink.com 1.10,2014-01-01 09:28:00,
2014-01-01 02:43:00,32.3,22.0,30.39,West,273,1.0,2.0,67,0.00,,,0.00,weatherlink.com 1.10,2014-01-01 09:43:00,
2014-01-01 02:58:00,32.9,23.0,30.39,NE,39,1.0,3.0,66,0.00,,,0.00,weatherlink.com 1.10,2014-01-01 09:58:00,
2014-01-01 03:13:00,33.3,23.0,30.39,West,263,1.0,2.0,66,0.00,,,0.00,weatherlink.com 1.10,2014-01-01 10:13:00,
2014-01-01 03:28:00,34.3,23.0,30.38,North,6,1.0,1.0,64,0.00,,,0.00,weatherlink.com 1.10,2014-01-01 10:28:00,
2014-01-01 03:43:00,33.1,22.0,30.38,ESE,115,0.0,2.0,65,0.00,,,0.00,weatherlink.com 1.10,2014-01-01 10:43:00,
2014-01-01 03:58:00,32.8,23.0,30.38,South,177,0.0,1.0,66,0.00,,,0.00,weatherlink.com 1.10,2014-01-01 10:58:00,
2014-01-01 04:13:00,32.9,23.0,30.38,ENE,74,0.0,2.0,67,0.00,,,0.00,weatherlink.com 1.10,2014-01-01 11:13:00,
2014-01-01 04:28:00,32.7,23.0,30.38,SW,232,0.0,3.0,67,0.00,,,0.00,weatherlink.com 1.10,2014-01-01 11:28:00,
2014-01-01 04:43:00,33.0,23.0,30.37,West,266,2.0,2.0,67,0.00,,,0.00,weatherlink.com 1.10,2014-01-01 11:43:00,
2014-01-01 04:58:00,32.9,23.0,30.37,SW,229,0.0,2.0,67,0.00,,,0.00,weatherlink.com 1.10,2014-01-01 11:58:00,
2014-01-01 05:13:00,32.8,23.0,30.37,SW,236,2.0,4.0,67,0.00,,,0.00,weatherlink.com 1.10,2014-01-01 12:13:00,
2014-01-01 05:28:00,32.4,23.0,30.37,SW,225,0.0,3.0,67,0.00,,,0.00,weatherlink.com 1.10,2014-01-01 12:28:00,
2014-01-01 05:43:00,31.8,22.0,30.38,WSW,250,0.0,3.0,67,0.00,,,0.00,weatherlink.com 1.10,2014-01-01 12:43:00,
2014-01-01 05:58:00,31.2,22.0,30.38,ESE,103,1.0,1.0,68,0.00,,,0.00,weatherlink.com 1.10,2014-01-01 12:58:00,
2014-01-01 06:13:00,31.0,22.0,30.37,West,266,2.0,3.0,69,0.00,,,0.00,weatherlink.com 1.10,2014-01-01 13:13:00,
2014-01-01 06:28:00,31.0,22.0,30.36,WSW,242,3.0,3.0,69,0.00,,,0.00,weatherlink.com 1.10,2014-01-01 13:28:00,
2014-01-01 06:43:00,31.3,22.0,30.38,NE,44,3.0,3.0,68,0.00,,,0.00,weatherlink.com 1.10,2014-01-01 13:43:00,
2014-01-01 06:58:00,30.1,21.0,30.39,West,281,2.0,2.0,68,0.00,,,0.00,weatherlink.com 1.10,2014-01-01 13:58:00,
2014-01-01 07:13:00,30.2,21.0,30.39,NNW,339,1.0,4.0,69,0.00,,,0.00,weatherlink.com 1.10,2014-01-01 14:13:00,
2014-01-01 07:28:00,31.1,22.0,30.38,NNE,30,3.0,3.0,69,0.00,,,0.00,weatherlink.com 1.10,2014-01-01 14:28:00,
2014-01-01 07:43:00,32.3,22.0,30.38,NNW,342,0.0,5.0,66,0.00,,,0.00,weatherlink.com 1.10,2014-01-01 14:43:00,
2014-01-01 07:58:00,33.9,22.0,30.40,NE,46,3.0,4.0,63,0.00,,,0.00,weatherlink.com 1.10,2014-01-01 14:58:00,
2014-01-01 08:13:00,34.4,22.0,30.40,NW,307,1.0,3.0,62,0.00,,,0.00,weatherlink.com 1.10,2014-01-01 15:13:00,
2014-01-01 08:28:00,35.3,23.0,30.41,North,360,2.0,6.0,60,0.00,,,0.00,weatherlink.com 1.10,2014-01-01 15:28:00,
2014-01-01 08:44:00,36.5,23.0,30.40,NE,53,1.0,3.0,58,0.00,,,0.00,weatherlink.com 1.10,2014-01-01 15:44:00,
2014-01-01 08:59:00,38.5,23.0,30.41,NNE,29,2.0,2.0,55,0.00,,,0.00,weatherlink.com 1.10,2014-01-01 15:59:00,
2014-01-01 09:14:00,39.9,24.0,30.42,NE,39,4.0,4.0,53,0.00,,,0.00,weatherlink.com 1.10,2014-01-01 16:14:00,
2014-01-01 09:29:00,41.5,24.0,30.42,North,359,0.0,3.0,50,0.00,,,0.00,weatherlink.com 1.10,2014-01-01 16:29:00,
2014-01-01 09:44:00,43.0,24.0,30.43,NE,47,1.0,4.0,48,0.00,,,0.00,weatherlink.com 1.10,2014-01-01 16:44:00,
2014-01-01 09:59:00,43.7,24.0,30.43,North,6,2.0,4.0,47,0.00,,,0.00,weatherlink.com 1.10,2014-01-01 16:59:00,
2014-01-01 10:14:00,45.1,25.0,30.42,NNE,25,2.0,4.0,45,0.00,,,0.00,weatherlink.com 1.10,2014-01-01 17:14:00,
2014-01-01 10:29:00,46.3,24.0,30.41,ESE,103,1.0,3.0,42,0.00,,,0.00,weatherlink.com 1.10,2014-01-01 17:29:00,
2014-01-01 10:44:00,47.5,25.0,30.41,SE,140,2.0,4.0,41,0.00,,,0.00,weatherlink.com 1.10,2014-01-01 17:44:00,
2014-01-01 10:59:00,49.1,25.0,30.41,East,89,2.0,4.0,39,0.00,,,0.00,weatherlink.com 1.10,2014-01-01 17:59:00,
2014-01-01 11:14:00,50.9,25.0,30.41,East,88,4.0,4.0,36,0.00,,,0.00,weatherlink.com 1.10,2014-01-01 18:14:00,
2014-01-01 11:29:00,51.8,24.0,30.40,NNE,22,1.0,4.0,34,0.00,,,0.00,weatherlink.com 1.10,2014-01-01 18:29:00,
2014-01-01 11:44:00,53.9,24.0,30.39,SSE,159,3.0,4.0,32,0.00,,,0.00,weatherlink.com 1.10,2014-01-01 18:44:00,
2014-01-01 12:00:00,55.0,25.0,30.37,SE,146,3.0,4.0,31,0.00,,,0.00,weatherlink.com 1.10,2014-01-01 19:00:00,
2014-01-01 12:14:00,55.7,25.0,30.36,SE,133,3.0,4.0,31,0.00,,,0.00,weatherlink.com 1.10,2014-01-01 19:14:00,
2014-01-01 12:29:00,56.7,25.0,30.35,SW,225,1.0,2.0,30,0.00,,,0.00,weatherlink.com 1.10,2014-01-01 19:29:00,
2014-01-01 12:44:00,57.9,25.0,30.33,ESE,120,1.0,4.0,28,0.00,,,0.00,weatherlink.com 1.10,2014-01-01 19:44:00,
2014-01-01 13:00:00,58.6,25.0,30.32,ESE,114,2.0,4.0,27,0.00,,,0.00,weatherlink.com 1.10,2014-01-01 20:00:00,
2014-01-01 13:15:00,58.3,24.0,30.32,East,89,3.0,5.0,27,0.00,,,0.00,weatherlink.com 1.10,2014-01-01 20:15:00,
2014-01-01 13:30:00,59.0,24.0,30.31,NE,56,4.0,5.0,26,0.00,,,0.00,weatherlink.com 1.10,2014-01-01 20:30:00,
2014-01-01 13:45:00,60.3,24.0,30.30,SE,138,0.0,4.0,25,0.00,,,0.00,weatherlink.com 1.10,2014-01-01 20:45:00,
2014-01-01 14:00:00,62.0,24.0,30.30,ENE,58,2.0,2.0,23,0.00,,,0.00,weatherlink.com 1.10,2014-01-01 21:00:00,
2014-01-01 14:15:00,63.4,24.0,30.30,SW,221,1.0,2.0,22,0.00,,,0.00,weatherlink.com 1.10,2014-01-01 21:15:00,
2014-01-01 14:30:00,63.8,23.0,30.29,SW,222,1.0,2.0,21,0.00,,,0.00,weatherlink.com 1.10,2014-01-01 21:30:00,
2014-01-01 14:45:00,63.5,23.0,30.30,ENE,58,4.0,4.0,21,0.00,,,0.00,weatherlink.com 1.10,2014-01-01 21:45:00,
2014-01-01 15:00:00,64.0,23.0,30.30,SSE,153,1.0,3.0,21,0.00,,,0.00,weatherlink.com 1.10,2014-01-01 22:00:00,
2014-01-01 15:15:00,64.3,22.0,30.30,ESE,123,2.0,4.0,20,0.00,,,0.00,weatherlink.com 1.10,2014-01-01 22:15:00,
2014-01-01 15:30:00,65.3,23.0,30.30,WSW,243,0.0,2.0,20,0.00,,,0.00,weatherlink.com 1.10,2014-01-01 22:30:00,
2014-01-01 15:45:00,65.0,22.0,30.30,SE,134,1.0,2.0,19,0.00,,,0.00,weatherlink.com 1.10,2014-01-01 22:45:00,
2014-01-01 16:00:00,65.1,23.0,30.30,South,186,0.0,3.0,20,0.00,,,0.00,weatherlink.com 1.10,2014-01-01 23:00:00,
2014-01-01 16:15:00,64.4,22.0,30.31,ESE,103,1.0,1.0,20,0.00,,,0.00,weatherlink.com 1.10,2014-01-01 23:15:00,
2014-01-01 16:30:00,63.6,22.0,30.32,ENE,78,0.0,2.0,20,0.00,,,0.00,weatherlink.com 1.10,2014-01-01 23:30:00,
2014-01-01 16:45:00,63.6,23.0,30.32,SW,235,1.0,4.0,21,0.00,,,0.00,weatherlink.com 1.10,2014-01-01 23:45:00,
2014-01-01 17:00:00,61.6,22.0,30.32,WSW,248,0.0,2.0,22,0.00,,,0.00,weatherlink.com 1.10,2014-01-02 00:00:00,
2014-01-01 17:15:00,58.8,22.0,30.33,NNW,329,4.0,5.0,24,0.00,,,0.00,weatherlink.com 1.10,2014-01-02 00:15:00,
2014-01-01 17:30:00,57.4,23.0,30.34,NNW,339,0.0,5.0,26,0.00,,,0.00,weatherlink.com 1.10,2014-01-02 00:30:00,
2014-01-01 17:45:00,55.7,22.0,30.35,North,350,0.0,3.0,27,0.00,,,0.00,weatherlink.com 1.10,2014-01-02 00:45:00,
2014-01-01 18:00:00,53.9,23.0,30.35,West,266,1.0,3.0,30,0.00,,,0.00,weatherlink.com 1.10,2014-01-02 01:00:00,
2014-01-01 18:15:00,53.3,22.0,30.36,West,263,2.0,3.0,30,0.00,,,0.00,weatherlink.com 1.10,2014-01-02 01:15:00,
2014-01-01 18:30:00,52.9,22.0,30.37,WNW,283,0.0,2.0,30,0.00,,,0.00,weatherlink.com 1.10,2014-01-02 01:30:00,
2014-01-01 18:45:00,51.6,22.0,30.37,WNW,283,0.0,0.0,31,0.00,,,0.00,weatherlink.com 1.10,2014-01-02 01:45:00,
2014-01-01 19:00:00,50.1,23.0,30.37,WNW,283,0.0,0.0,34,0.00,,,0.00,weatherlink.com 1.10,2014-01-02 02:00:00,
2014-01-01 19:15:00,48.6,22.0,30.38,WNW,283,0.0,0.0,35,0.00,,,0.00,weatherlink.com 1.10,2014-01-02 02:15:00,
2014-01-01 19:30:00,49.7,22.0,30.39,WNW,287,2.0,3.0,34,0.00,,,0.00,weatherlink.com 1.10,2014-01-02 02:30:00,
2014-01-01 19:45:00,50.8,22.0,30.39,West,274,1.0,3.0,33,0.00,,,0.00,weatherlink.com 1.10,2014-01-02 02:45:00,
2014-01-01 20:00:00,50.3,22.0,30.40,West,279,1.0,2.0,33,0.00,,,0.00,weatherlink.com 1.10,2014-01-02 03:00:00,
2014-01-01 20:15:00,50.3,22.0,30.40,West,280,0.0,2.0,33,0.00,,,0.00,weatherlink.com 1.10,2014-01-02 03:15:00,
2014-01-01 20:30:00,49.0,22.0,30.40,West,280,0.0,2.0,35,0.00,,,0.00,weatherlink.com 1.10,2014-01-02 03:30:00,
2014-01-01 20:45:00,48.0,22.0,30.41,West,279,0.0,1.0,36,0.00,,,0.00,weatherlink.com 1.10,2014-01-02 03:45:00,
2014-01-01 21:00:00,49.0,22.0,30.41,West,280,1.0,2.0,35,0.00,,,0.00,weatherlink.com 1.10,2014-01-02 04:00:00,
2014-01-01 21:15:00,48.5,22.0,30.42,West,280,3.0,3.0,36,0.00,,,0.00,weatherlink.com 1.10,2014-01-02 04:15:00,
2014-01-01 21:30:00,49.3,23.0,30.42,WNW,284,1.0,2.0,35,0.00,,,0.00,weatherlink.com 1.10,2014-01-02 04:30:00,
2014-01-01 21:45:00,48.7,22.0,30.43,West,274,0.0,1.0,35,0.00,,,0.00,weatherlink.com 1.10,2014-01-02 04:45:00,
2014-01-01 22:00:00,45.9,22.0,30.43,WNW,302,1.0,4.0,39,0.00,,,0.00,weatherlink.com 1.10,2014-01-02 05:00:00,
2014-01-01 22:15:00,43.9,22.0,30.43,NW,305,1.0,1.0,42,0.00,,,0.00,weatherlink.com 1.10,2014-01-02 05:15:00,
2014-01-01 22:30:00,43.3,22.0,30.44,NW,305,1.0,1.0,43,0.00,,,0.00,weatherlink.com 1.10,2014-01-02 05:30:00,
2014-01-01 22:45:00,45.0,22.0,30.45,NW,305,0.0,2.0,41,0.00,,,0.00,weatherlink.com 1.10,2014-01-02 05:45:00,
2014-01-01 23:00:00,43.3,22.0,30.45,ENE,74,0.0,1.0,43,0.00,,,0.00,weatherlink.com 1.10,2014-01-02 06:00:00,
2014-01-01 23:15:00,40.7,21.0,30.46,East,88,0.0,0.0,46,0.00,,,0.00,weatherlink.com 1.10,2014-01-02 06:15:00,
2014-01-01 23:30:00,39.2,20.0,30.47,NE,40,2.0,3.0,47,0.00,,,0.00,weatherlink.com 1.10,2014-01-02 06:30:00,
2014-01-01 23:45:00,39.1,19.0,30.47,NNW,340,1.0,1.0,45,0.00,,,0.00,weatherlink.com 1.10,2014-01-02 06:45:00,